Aeroporto :
LOGIN :

Iscrizione | Disclaimer

   EN    FR    IT 

 










Sommario :    VFR   VFR Marginale   IFR   IFR Intensivo   IFR Molto Intensivo
Visibilità : 
Base nubi : 
>= 8 km
>= 3000ft
5 / 8 km
1000 / 3000 ft
1500m / 5 km
500 / 1000 ft
800 / 1500m
200 / 500 ft
< 800m
< 200 ft
Simboli :   Temporali  Nebbia  Neve Forte  Precipitazioni Forti  Vento > 20 kt
SIGMETs :   Varie  Temporali  Ghiacco  Turbolenza  Onda orograficha  Ceneri Vulcaniche







- Altitudine del aeroporto : 412 ft
- Codice IATA : ORE
- Carte del aeroporto


LFOJ - Orleans

ULTIMO METAR :
  • 170700Z AUTO 35007KT CAVOK 20/15 Q1018 NOSIG

METARs OBSOLETI :
  • 170630Z AUTO 34007KT CAVOK 18/14 Q1017 NOSIG
  • 170600Z AUTO 34005KT 310V010 CAVOK 17/13 Q1017 NOSIG
  • 170530Z AUTO 33003KT CAVOK 16/13 Q1017 NOSIG
  • 170500Z AUTO 32004KT CAVOK 16/13 Q1017
  • 170430Z AUTO 34003KT CAVOK 15/12 Q1016

TAF AMD TAF LFOJ
Valido dal 17 a 05 ore il 18 a 03 ore UTC


170445Z 1705/1803 33005KT CAVOK
Nessun NOTAM noto per questo aeroporto.



MetMap, La meteo Aeronautica in un colpo d'occhio ! - Copyright ORBIFLY Dicembre 2007 - Disclaimer

ORBIFLY MET'MAP TEAM :

Programmazione e sviluppo : Alexandra Zaïnal
Concezione e sviluppo : Baudouin d'Aumeries
Co-Programmazione e sviluppo : Marc-Olivier Méhu
Supporto tecnico e logistico : Manuel Goepfert
Aiuto per la traduzione : Arnaldo La Scala

Contatto : metmap@orbifly.com




FONTI E CREDITI :

   NOAA